sensor_id;sensor_type;location;lat;lon;timestamp;pressure;altitude;pressure_sealevel;temperature;humidity
58534;BME280;44109;52.398;7.024;2023-12-04T00:01:59;101255.28;;;2.54;100.00
58534;BME280;44109;52.398;7.024;2023-12-04T00:04:26;101252.66;;;2.63;100.00
58534;BME280;44109;52.398;7.024;2023-12-04T00:06:53;101256.28;;;2.58;100.00
58534;BME280;44109;52.398;7.024;2023-12-04T00:09:21;101241.31;;;2.56;100.00
58534;BME280;44109;52.398;7.024;2023-12-04T00:11:50;101237.53;;;2.65;100.00
58534;BME280;44109;52.398;7.024;2023-12-04T00:14:19;101236.63;;;2.56;100.00
58534;BME280;44109;52.398;7.024;2023-12-04T00:16:46;101222.03;;;2.47;100.00
58534;BME280;44109;52.398;7.024;2023-12-04T00:19:14;101234.38;;;2.58;100.00
58534;BME280;44109;52.398;7.024;2023-12-04T00:21:41;101231.75;;;2.53;100.00
58534;BME280;44109;52.398;7.024;2023-12-04T00:24:09;101232.28;;;2.55;100.00
58534;BME280;44109;52.398;7.024;2023-12-04T00:26:36;101239.28;;;2.61;100.00
58534;BME280;44109;52.398;7.024;2023-12-04T00:29:04;101225.25;;;2.49;100.00
58534;BME280;44109;52.398;7.024;2023-12-04T00:31:33;101229.72;;;2.59;100.00
58534;BME280;44109;52.398;7.024;2023-12-04T00:34:00;101224.34;;;2.53;100.00
58534;BME280;44109;52.398;7.024;2023-12-04T00:36:28;101215.31;;;2.53;100.00
58534;BME280;44109;52.398;7.024;2023-12-04T00:38:55;101177.94;;;2.35;100.00
58534;BME280;44109;52.398;7.024;2023-12-04T00:41:23;101217.78;;;2.41;100.00
58534;BME280;44109;52.398;7.024;2023-12-04T00:43:50;101218.06;;;2.53;100.00
58534;BME280;44109;52.398;7.024;2023-12-04T00:46:18;101212.91;;;2.51;100.00
58534;BME280;44109;52.398;7.024;2023-12-04T00:48:47;101208.25;;;2.38;100.00
58534;BME280;44109;52.398;7.024;2023-12-04T00:51:14;101213.41;;;2.53;100.00
58534;BME280;44109;52.398;7.024;2023-12-04T00:53:42;101208.66;;;2.59;100.00
58534;BME280;44109;52.398;7.024;2023-12-04T00:56:10;101199.59;;;2.45;100.00
58534;BME280;44109;52.398;7.024;2023-12-04T00:58:38;101198.28;;;2.56;100.00
58534;BME280;44109;52.398;7.024;2023-12-04T01:01:06;101195.44;;;2.61;100.00
58534;BME280;44109;52.398;7.024;2023-12-04T01:03:33;101191.78;;;2.66;100.00
58534;BME280;44109;52.398;7.024;2023-12-04T01:06:03;101178.41;;;2.64;100.00
58534;BME280;44109;52.398;7.024;2023-12-04T01:08:30;101177.59;;;2.64;100.00
58534;BME280;44109;52.398;7.024;2023-12-04T01:10:58;101163.59;;;2.65;100.00
58534;BME280;44109;52.398;7.024;2023-12-04T01:13:25;101184.25;;;2.71;100.00
58534;BME280;44109;52.398;7.024;2023-12-04T01:15:53;101165.91;;;2.72;100.00
58534;BME280;44109;52.398;7.024;2023-12-04T01:18:20;101170.56;;;2.71;100.00
58534;BME280;44109;52.398;7.024;2023-12-04T01:20:48;101165.41;;;2.70;100.00
58534;BME280;44109;52.398;7.024;2023-12-04T01:23:16;101166.34;;;2.65;100.00
58534;BME280;44109;52.398;7.024;2023-12-04T01:25:44;101140.00;;;2.42;100.00
58534;BME280;44109;52.398;7.024;2023-12-04T01:28:11;101163.19;;;2.58;100.00
58534;BME280;44109;52.398;7.024;2023-12-04T01:30:40;101158.91;;;2.66;100.00
58534;BME280;44109;52.398;7.024;2023-12-04T01:33:07;101162.34;;;2.71;100.00
58534;BME280;44109;52.398;7.024;2023-12-04T01:35:35;101163.97;;;2.72;100.00
58534;BME280;44109;52.398;7.024;2023-12-04T01:38:03;101145.22;;;2.66;100.00
58534;BME280;44109;52.398;7.024;2023-12-04T01:40:32;101130.03;;;2.60;100.00
58534;BME280;44109;52.398;7.024;2023-12-04T01:42:59;101141.69;;;2.65;100.00
58534;BME280;44109;52.398;7.024;2023-12-04T01:45:27;101140.44;;;2.71;100.00
58534;BME280;44109;52.398;7.024;2023-12-04T01:47:55;101145.09;;;2.71;100.00
58534;BME280;44109;52.398;7.024;2023-12-04T01:50:23;101145.75;;;2.54;100.00
58534;BME280;44109;52.398;7.024;2023-12-04T01:52:53;101140.06;;;2.64;100.00
58534;BME280;44109;52.398;7.024;2023-12-04T01:55:20;101136.53;;;2.64;100.00
58534;BME280;44109;52.398;7.024;2023-12-04T01:57:50;101123.75;;;2.59;100.00
58534;BME280;44109;52.398;7.024;2023-12-04T02:00:18;101139.44;;;2.67;100.00
58534;BME280;44109;52.398;7.024;2023-12-04T02:02:47;101130.81;;;2.74;100.00
58534;BME280;44109;52.398;7.024;2023-12-04T02:05:14;101125.81;;;2.76;100.00
58534;BME280;44109;52.398;7.024;2023-12-04T02:07:43;101130.53;;;2.62;100.00
58534;BME280;44109;52.398;7.024;2023-12-04T02:10:11;101129.13;;;2.64;100.00
58534;BME280;44109;52.398;7.024;2023-12-04T02:12:39;101124.41;;;2.78;100.00
58534;BME280;44109;52.398;7.024;2023-12-04T02:15:08;101115.50;;;2.73;100.00
58534;BME280;44109;52.398;7.024;2023-12-04T02:17:36;101121.25;;;2.71;100.00
58534;BME280;44109;52.398;7.024;2023-12-04T02:20:05;101124.84;;;2.58;100.00
58534;BME280;44109;52.398;7.024;2023-12-04T02:22:33;101111.75;;;2.69;100.00
58534;BME280;44109;52.398;7.024;2023-12-04T02:25:03;101110.81;;;2.73;100.00
58534;BME280;44109;52.398;7.024;2023-12-04T02:27:38;101112.81;;;2.82;100.00
58534;BME280;44109;52.398;7.024;2023-12-04T02:30:12;101070.97;;;2.67;100.00
58534;BME280;44109;52.398;7.024;2023-12-04T02:32:44;101098.00;;;2.83;100.00
58534;BME280;44109;52.398;7.024;2023-12-04T02:35:14;101091.41;;;2.84;100.00
58534;BME280;44109;52.398;7.024;2023-12-04T02:37:46;101099.94;;;2.82;100.00
58534;BME280;44109;52.398;7.024;2023-12-04T02:40:16;101091.97;;;2.58;100.00
58534;BME280;44109;52.398;7.024;2023-12-04T02:42:44;101092.66;;;2.77;100.00
58534;BME280;44109;52.398;7.024;2023-12-04T02:45:12;101084.91;;;2.79;100.00
58534;BME280;44109;52.398;7.024;2023-12-04T02:47:39;101088.16;;;2.82;100.00
58534;BME280;44109;52.398;7.024;2023-12-04T02:50:07;101074.78;;;2.80;100.00
58534;BME280;44109;52.398;7.024;2023-12-04T02:52:35;101074.84;;;2.89;100.00
58534;BME280;44109;52.398;7.024;2023-12-04T02:55:03;101073.41;;;2.91;100.00
58534;BME280;44109;52.398;7.024;2023-12-04T02:57:33;101074.50;;;2.90;100.00
58534;BME280;44109;52.398;7.024;2023-12-04T03:00:00;101067.22;;;2.86;100.00
58534;BME280;44109;52.398;7.024;2023-12-04T03:02:30;101061.88;;;2.80;100.00
58534;BME280;44109;52.398;7.024;2023-12-04T03:04:57;101062.31;;;2.74;100.00
58534;BME280;44109;52.398;7.024;2023-12-04T03:07:25;101067.00;;;2.73;100.00
58534;BME280;44109;52.398;7.024;2023-12-04T03:09:52;101058.38;;;2.66;100.00
58534;BME280;44109;52.398;7.024;2023-12-04T03:12:20;101057.97;;;2.73;100.00
58534;BME280;44109;52.398;7.024;2023-12-04T03:14:49;101050.56;;;2.73;100.00
58534;BME280;44109;52.398;7.024;2023-12-04T03:17:16;101043.44;;;2.72;100.00
58534;BME280;44109;52.398;7.024;2023-12-04T03:19:44;101037.66;;;2.74;100.00
58534;BME280;44109;52.398;7.024;2023-12-04T03:22:12;101042.34;;;2.73;100.00
58534;BME280;44109;52.398;7.024;2023-12-04T03:24:40;101015.03;;;2.60;100.00
58534;BME280;44109;52.398;7.024;2023-12-04T03:27:07;101024.03;;;2.60;100.00
58534;BME280;44109;52.398;7.024;2023-12-04T03:29:35;101031.25;;;2.56;100.00
58534;BME280;44109;52.398;7.024;2023-12-04T03:32:04;101027.00;;;2.72;100.00
58534;BME280;44109;52.398;7.024;2023-12-04T03:34:32;101018.69;;;2.77;100.00
58534;BME280;44109;52.398;7.024;2023-12-04T03:36:59;101012.50;;;2.72;100.00
58534;BME280;44109;52.398;7.024;2023-12-04T03:39:27;101024.28;;;2.72;100.00
58534;BME280;44109;52.398;7.024;2023-12-04T03:41:54;101007.16;;;2.67;100.00
58534;BME280;44109;52.398;7.024;2023-12-04T03:44:22;100994.41;;;2.62;100.00
58534;BME280;44109;52.398;7.024;2023-12-04T03:46:50;101016.44;;;2.79;100.00
58534;BME280;44109;52.398;7.024;2023-12-04T03:49:19;101010.41;;;2.69;100.00
58534;BME280;44109;52.398;7.024;2023-12-04T03:51:46;101012.03;;;2.70;100.00
58534;BME280;44109;52.398;7.024;2023-12-04T03:54:14;101002.19;;;2.69;100.00
58534;BME280;44109;52.398;7.024;2023-12-04T03:56:41;101006.41;;;2.52;100.00
58534;BME280;44109;52.398;7.024;2023-12-04T03:59:09;101002.13;;;2.60;100.00
58534;BME280;44109;52.398;7.024;2023-12-04T04:01:37;100996.19;;;2.67;100.00
58534;BME280;44109;52.398;7.024;2023-12-04T04:04:04;101003.06;;;2.78;100.00
58534;BME280;44109;52.398;7.024;2023-12-04T04:06:33;100995.91;;;2.68;100.00
58534;BME280;44109;52.398;7.024;2023-12-04T04:09:01;100994.28;;;2.67;100.00
58534;BME280;44109;52.398;7.024;2023-12-04T04:11:28;100993.34;;;2.72;100.00
58534;BME280;44109;52.398;7.024;2023-12-04T04:13:56;100989.91;;;2.66;100.00
58534;BME280;44109;52.398;7.024;2023-12-04T04:16:24;100986.06;;;2.67;100.00
58534;BME280;44109;52.398;7.024;2023-12-04T04:18:51;100984.44;;;2.66;100.00
58534;BME280;44109;52.398;7.024;2023-12-04T04:21:19;100987.19;;;2.66;100.00
58534;BME280;44109;52.398;7.024;2023-12-04T04:23:47;100982.84;;;2.65;100.00
58534;BME280;44109;52.398;7.024;2023-12-04T04:26:15;100983.63;;;2.66;100.00
58534;BME280;44109;52.398;7.024;2023-12-04T04:28:42;100978.78;;;2.63;100.00
58534;BME280;44109;52.398;7.024;2023-12-04T04:31:10;100982.22;;;2.68;100.00
58534;BME280;44109;52.398;7.024;2023-12-04T04:33:37;100976.41;;;2.70;100.00
58534;BME280;44109;52.398;7.024;2023-12-04T04:36:06;100977.03;;;2.67;100.00
58534;BME280;44109;52.398;7.024;2023-12-04T04:38:36;100971.94;;;2.74;100.00
58534;BME280;44109;52.398;7.024;2023-12-04T04:41:07;100976.66;;;2.82;100.00
58534;BME280;44109;52.398;7.024;2023-12-04T04:43:40;100974.41;;;2.84;100.00
58534;BME280;44109;52.398;7.024;2023-12-04T04:46:08;100971.41;;;2.72;100.00
58534;BME280;44109;52.398;7.024;2023-12-04T04:48:36;100959.66;;;2.71;100.00
58534;BME280;44109;52.398;7.024;2023-12-04T04:51:04;100959.91;;;2.84;100.00
58534;BME280;44109;52.398;7.024;2023-12-04T04:53:31;100957.94;;;2.53;100.00
58534;BME280;44109;52.398;7.024;2023-12-04T04:55:59;100955.63;;;2.69;100.00
58534;BME280;44109;52.398;7.024;2023-12-04T04:58:28;100954.56;;;2.78;100.00
58534;BME280;44109;52.398;7.024;2023-12-04T05:00:56;100944.69;;;2.69;100.00
58534;BME280;44109;52.398;7.024;2023-12-04T05:03:23;100942.28;;;2.76;100.00
58534;BME280;44109;52.398;7.024;2023-12-04T05:05:51;100944.34;;;2.70;100.00
58534;BME280;44109;52.398;7.024;2023-12-04T05:08:18;100934.88;;;2.76;100.00
58534;BME280;44109;52.398;7.024;2023-12-04T05:10:46;100932.66;;;2.78;100.00
58534;BME280;44109;52.398;7.024;2023-12-04T05:13:13;100934.06;;;2.76;100.00
58534;BME280;44109;52.398;7.024;2023-12-04T05:15:42;100931.03;;;2.77;100.00
58534;BME280;44109;52.398;7.024;2023-12-04T05:18:10;100926.31;;;2.69;100.00
58534;BME280;44109;52.398;7.024;2023-12-04T05:20:37;100930.97;;;2.69;100.00
58534;BME280;44109;52.398;7.024;2023-12-04T05:23:05;100933.88;;;2.72;100.00
58534;BME280;44109;52.398;7.024;2023-12-04T05:25:32;100927.78;;;2.75;100.00
58534;BME280;44109;52.398;7.024;2023-12-04T05:28:00;100911.69;;;2.74;100.00
58534;BME280;44109;52.398;7.024;2023-12-04T05:30:28;100933.13;;;2.80;100.00
58534;BME280;44109;52.398;7.024;2023-12-04T05:32:56;100922.50;;;2.79;100.00
58534;BME280;44109;52.398;7.024;2023-12-04T05:35:24;100915.22;;;2.74;100.00
58534;BME280;44109;52.398;7.024;2023-12-04T05:37:51;100920.59;;;2.57;100.00
58534;BME280;44109;52.398;7.024;2023-12-04T05:40:19;100915.34;;;2.69;100.00
58534;BME280;44109;52.398;7.024;2023-12-04T05:42:47;100906.16;;;2.65;100.00
58534;BME280;44109;52.398;7.024;2023-12-04T05:45:14;100918.47;;;2.85;100.00
58534;BME280;44109;52.398;7.024;2023-12-04T05:47:42;100914.94;;;2.85;100.00
58534;BME280;44109;52.398;7.024;2023-12-04T05:50:11;100893.50;;;2.78;100.00
58534;BME280;44109;52.398;7.024;2023-12-04T05:52:38;100912.25;;;2.93;100.00
58534;BME280;44109;52.398;7.024;2023-12-04T05:55:08;100922.88;;;2.95;100.00
58534;BME280;44109;52.398;7.024;2023-12-04T05:57:38;100920.59;;;2.88;100.00
58534;BME280;44109;52.398;7.024;2023-12-04T06:00:07;100912.06;;;2.90;100.00
58534;BME280;44109;52.398;7.024;2023-12-04T06:02:38;100916.91;;;2.93;100.00
58534;BME280;44109;52.398;7.024;2023-12-04T06:05:06;100910.44;;;2.89;100.00
58534;BME280;44109;52.398;7.024;2023-12-04T06:07:36;100907.56;;;2.94;100.00
58534;BME280;44109;52.398;7.024;2023-12-04T06:10:05;100909.19;;;2.95;100.00
58534;BME280;44109;52.398;7.024;2023-12-04T06:12:34;100913.50;;;2.87;100.00
58534;BME280;44109;52.398;7.024;2023-12-04T06:15:02;100918.66;;;2.89;100.00
58534;BME280;44109;52.398;7.024;2023-12-04T06:17:29;100899.84;;;2.96;100.00
58534;BME280;44109;52.398;7.024;2023-12-04T06:19:57;100887.53;;;2.85;100.00
58534;BME280;44109;52.398;7.024;2023-12-04T06:22:25;100891.59;;;2.87;100.00
58534;BME280;44109;52.398;7.024;2023-12-04T06:24:54;100897.59;;;2.98;100.00
58534;BME280;44109;52.398;7.024;2023-12-04T06:27:23;100892.13;;;2.98;100.00
58534;BME280;44109;52.398;7.024;2023-12-04T06:29:51;100890.31;;;2.93;100.00
58534;BME280;44109;52.398;7.024;2023-12-04T06:32:19;100885.03;;;2.97;100.00
58534;BME280;44109;52.398;7.024;2023-12-04T06:34:47;100877.28;;;2.99;100.00
58534;BME280;44109;52.398;7.024;2023-12-04T06:37:16;100883.06;;;2.89;100.00
58534;BME280;44109;52.398;7.024;2023-12-04T06:39:45;100867.28;;;2.94;100.00
58534;BME280;44109;52.398;7.024;2023-12-04T06:42:17;100867.41;;;2.89;100.00
58534;BME280;44109;52.398;7.024;2023-12-04T06:44:45;100866.63;;;2.89;100.00
58534;BME280;44109;52.398;7.024;2023-12-04T06:47:17;100860.47;;;2.83;100.00
58534;BME280;44109;52.398;7.024;2023-12-04T06:49:49;100827.34;;;2.62;100.00
58534;BME280;44109;52.398;7.024;2023-12-04T06:52:16;100856.22;;;2.68;100.00
58534;BME280;44109;52.398;7.024;2023-12-04T06:54:44;100848.84;;;2.77;100.00
58534;BME280;44109;52.398;7.024;2023-12-04T06:57:12;100846.09;;;2.38;100.00
58534;BME280;44109;52.398;7.024;2023-12-04T06:59:42;100842.97;;;2.62;100.00
58534;BME280;44109;52.398;7.024;2023-12-04T07:02:09;100842.03;;;2.66;100.00
58534;BME280;44109;52.398;7.024;2023-12-04T07:04:37;100833.03;;;2.74;100.00
58534;BME280;44109;52.398;7.024;2023-12-04T07:07:05;100831.44;;;2.73;100.00
58534;BME280;44109;52.398;7.024;2023-12-04T07:09:33;100834.66;;;2.75;100.00
58534;BME280;44109;52.398;7.024;2023-12-04T07:12:01;100814.94;;;2.56;100.00
58534;BME280;44109;52.398;7.024;2023-12-04T07:14:29;100838.81;;;2.64;100.00
58534;BME280;44109;52.398;7.024;2023-12-04T07:16:58;100825.16;;;2.73;100.00
58534;BME280;44109;52.398;7.024;2023-12-04T07:19:26;100825.13;;;2.64;100.00
58534;BME280;44109;52.398;7.024;2023-12-04T07:21:55;100819.13;;;2.62;100.00
58534;BME280;44109;52.398;7.024;2023-12-04T07:24:23;100819.97;;;2.71;100.00
58534;BME280;44109;52.398;7.024;2023-12-04T07:26:52;100818.84;;;2.72;100.00
58534;BME280;44109;52.398;7.024;2023-12-04T07:29:20;100821.91;;;2.71;100.00
58534;BME280;44109;52.398;7.024;2023-12-04T07:31:47;100822.53;;;2.68;100.00
58534;BME280;44109;52.398;7.024;2023-12-04T07:34:16;100815.16;;;2.68;100.00
58534;BME280;44109;52.398;7.024;2023-12-04T07:36:44;100824.31;;;2.72;100.00
58534;BME280;44109;52.398;7.024;2023-12-04T07:39:12;100817.38;;;2.66;100.00
58534;BME280;44109;52.398;7.024;2023-12-04T07:41:39;100822.28;;;2.78;100.00
58534;BME280;44109;52.398;7.024;2023-12-04T07:44:07;100819.69;;;2.82;100.00
58534;BME280;44109;52.398;7.024;2023-12-04T07:46:35;100793.72;;;2.70;100.00
58534;BME280;44109;52.398;7.024;2023-12-04T07:49:03;100809.72;;;2.86;100.00
58534;BME280;44109;52.398;7.024;2023-12-04T07:51:32;100808.25;;;2.79;100.00
58534;BME280;44109;52.398;7.024;2023-12-04T07:53:59;100805.97;;;2.82;100.00
58534;BME280;44109;52.398;7.024;2023-12-04T07:56:27;100802.16;;;2.83;100.00
58534;BME280;44109;52.398;7.024;2023-12-04T07:58:54;100793.91;;;2.74;100.00
58534;BME280;44109;52.398;7.024;2023-12-04T08:01:23;100783.22;;;2.72;100.00
58534;BME280;44109;52.398;7.024;2023-12-04T08:03:50;100787.31;;;2.84;100.00
58534;BME280;44109;52.398;7.024;2023-12-04T08:06:18;100782.97;;;2.83;100.00
58534;BME280;44109;52.398;7.024;2023-12-04T08:08:47;100788.78;;;2.90;100.00
58534;BME280;44109;52.398;7.024;2023-12-04T08:11:14;100789.91;;;2.89;100.00
58534;BME280;44109;52.398;7.024;2023-12-04T08:13:43;100776.84;;;2.86;100.00
58534;BME280;44109;52.398;7.024;2023-12-04T08:16:14;100782.84;;;2.96;100.00
58534;BME280;44109;52.398;7.024;2023-12-04T08:18:42;100783.16;;;3.03;100.00
58534;BME280;44109;52.398;7.024;2023-12-04T08:21:10;100779.00;;;3.06;100.00
58534;BME280;44109;52.398;7.024;2023-12-04T08:23:37;100773.97;;;3.08;100.00
58534;BME280;44109;52.398;7.024;2023-12-04T08:26:07;100771.75;;;3.10;100.00
58534;BME280;44109;52.398;7.024;2023-12-04T08:28:34;100769.78;;;3.02;100.00
58534;BME280;44109;52.398;7.024;2023-12-04T08:31:03;100768.66;;;3.12;100.00
58534;BME280;44109;52.398;7.024;2023-12-04T08:33:33;100767.06;;;3.19;100.00
58534;BME280;44109;52.398;7.024;2023-12-04T08:36:02;100764.81;;;3.21;100.00
58534;BME280;44109;52.398;7.024;2023-12-04T08:38:29;100760.31;;;3.25;100.00
58534;BME280;44109;52.398;7.024;2023-12-04T08:40:57;100752.06;;;3.25;100.00
58534;BME280;44109;52.398;7.024;2023-12-04T08:43:26;100751.75;;;3.36;100.00
58534;BME280;44109;52.398;7.024;2023-12-04T08:45:55;100738.72;;;3.33;100.00
58534;BME280;44109;52.398;7.024;2023-12-04T08:48:22;100746.59;;;3.34;100.00
58534;BME280;44109;52.398;7.024;2023-12-04T08:50:50;100751.28;;;3.34;100.00
58534;BME280;44109;52.398;7.024;2023-12-04T08:53:17;100752.56;;;3.27;100.00
58534;BME280;44109;52.398;7.024;2023-12-04T08:55:45;100751.63;;;3.41;100.00
58534;BME280;44109;52.398;7.024;2023-12-04T08:58:13;100746.75;;;3.55;100.00
58534;BME280;44109;52.398;7.024;2023-12-04T09:00:42;100751.28;;;3.51;100.00
58534;BME280;44109;52.398;7.024;2023-12-04T09:03:09;100741.41;;;3.59;100.00
58534;BME280;44109;52.398;7.024;2023-12-04T09:05:37;100742.38;;;3.63;100.00
58534;BME280;44109;52.398;7.024;2023-12-04T09:08:05;100738.38;;;3.69;100.00
58534;BME280;44109;52.398;7.024;2023-12-04T09:10:32;100741.72;;;3.74;100.00
58534;BME280;44109;52.398;7.024;2023-12-04T09:13:00;100736.41;;;3.69;100.00
58534;BME280;44109;52.398;7.024;2023-12-04T09:15:28;100729.63;;;3.75;100.00
58534;BME280;44109;52.398;7.024;2023-12-04T09:17:57;100725.13;;;3.62;100.00
58534;BME280;44109;52.398;7.024;2023-12-04T09:20:24;100732.22;;;3.63;100.00
58534;BME280;44109;52.398;7.024;2023-12-04T09:22:52;100729.16;;;3.65;100.00
58534;BME280;44109;52.398;7.024;2023-12-04T09:25:19;100737.69;;;3.72;100.00
58534;BME280;44109;52.398;7.024;2023-12-04T09:27:47;100735.97;;;3.50;100.00
58534;BME280;44109;52.398;7.024;2023-12-04T09:30:15;100731.56;;;3.66;100.00
58534;BME280;44109;52.398;7.024;2023-12-04T09:32:43;100726.25;;;3.61;100.00
58534;BME280;44109;52.398;7.024;2023-12-04T09:35:13;100720.63;;;3.49;100.00
58534;BME280;44109;52.398;7.024;2023-12-04T09:37:41;100715.63;;;3.42;100.00
58534;BME280;44109;52.398;7.024;2023-12-04T09:40:09;100719.81;;;3.57;100.00
58534;BME280;44109;52.398;7.024;2023-12-04T09:42:38;100730.31;;;3.55;100.00
58534;BME280;44109;52.398;7.024;2023-12-04T09:45:08;100724.66;;;3.60;100.00
58534;BME280;44109;52.398;7.024;2023-12-04T09:47:36;100727.69;;;3.67;100.00
58534;BME280;44109;52.398;7.024;2023-12-04T09:50:05;100724.78;;;3.72;100.00
58534;BME280;44109;52.398;7.024;2023-12-04T09:52:36;100718.06;;;3.35;100.00
58534;BME280;44109;52.398;7.024;2023-12-04T09:55:04;100712.72;;;3.56;100.00
58534;BME280;44109;52.398;7.024;2023-12-04T09:57:33;100710.13;;;3.68;100.00
58534;BME280;44109;52.398;7.024;2023-12-04T10:00:03;100713.50;;;3.65;100.00
58534;BME280;44109;52.398;7.024;2023-12-04T10:02:32;100708.50;;;3.67;100.00
58534;BME280;44109;52.398;7.024;2023-12-04T10:05:02;100717.84;;;3.75;100.00
58534;BME280;44109;52.398;7.024;2023-12-04T10:07:31;100714.94;;;3.80;100.00
58534;BME280;44109;52.398;7.024;2023-12-04T10:10:00;100711.91;;;3.64;100.00
58534;BME280;44109;52.398;7.024;2023-12-04T10:12:27;100700.94;;;3.64;100.00
58534;BME280;44109;52.398;7.024;2023-12-04T10:15:05;100704.56;;;3.86;100.00
58534;BME280;44109;52.398;7.024;2023-12-04T10:17:34;100699.59;;;3.88;100.00
58534;BME280;44109;52.398;7.024;2023-12-04T10:20:07;100678.47;;;3.79;100.00
58534;BME280;44109;52.398;7.024;2023-12-04T10:22:39;100683.75;;;3.85;100.00
58534;BME280;44109;52.398;7.024;2023-12-04T10:25:20;100675.41;;;3.72;100.00
58534;BME280;44109;52.398;7.024;2023-12-04T10:27:49;100646.34;;;3.71;100.00
58534;BME280;44109;52.398;7.024;2023-12-04T10:30:23;100669.09;;;3.80;100.00
58534;BME280;44109;52.398;7.024;2023-12-04T10:32:55;100652.59;;;3.89;100.00
58534;BME280;44109;52.398;7.024;2023-12-04T10:35:28;100652.75;;;3.93;100.00
58534;BME280;44109;52.398;7.024;2023-12-04T10:37:57;100656.78;;;3.95;100.00
58534;BME280;44109;52.398;7.024;2023-12-04T10:40:28;100650.16;;;3.96;100.00
58534;BME280;44109;52.398;7.024;2023-12-04T10:43:15;100645.50;;;3.88;100.00
58534;BME280;44109;52.398;7.024;2023-12-04T10:45:44;100642.31;;;3.86;100.00
58534;BME280;44109;52.398;7.024;2023-12-04T10:48:14;100633.53;;;3.93;100.00
58534;BME280;44109;52.398;7.024;2023-12-04T10:50:44;100628.06;;;3.93;100.00
58534;BME280;44109;52.398;7.024;2023-12-04T10:53:15;100622.16;;;3.73;100.00
58534;BME280;44109;52.398;7.024;2023-12-04T10:55:45;100622.91;;;3.91;100.00
58534;BME280;44109;52.398;7.024;2023-12-04T10:58:14;100611.41;;;3.98;100.00
58534;BME280;44109;52.398;7.024;2023-12-04T11:00:44;100607.25;;;3.92;100.00
58534;BME280;44109;52.398;7.024;2023-12-04T11:03:15;100607.22;;;4.00;100.00
58534;BME280;44109;52.398;7.024;2023-12-04T11:05:50;100608.28;;;4.08;100.00
58534;BME280;44109;52.398;7.024;2023-12-04T11:08:22;100603.34;;;4.22;100.00
58534;BME280;44109;52.398;7.024;2023-12-04T11:10:56;100587.41;;;4.16;100.00
58534;BME280;44109;52.398;7.024;2023-12-04T11:13:28;100603.66;;;4.29;100.00
58534;BME280;44109;52.398;7.024;2023-12-04T11:16:01;100591.47;;;4.18;100.00
58534;BME280;44109;52.398;7.024;2023-12-04T11:18:32;100594.81;;;4.45;100.00
58534;BME280;44109;52.398;7.024;2023-12-04T11:21:07;100546.50;;;4.02;100.00
58534;BME280;44109;52.398;7.024;2023-12-04T11:23:37;100598.50;;;4.28;100.00
58534;BME280;44109;52.398;7.024;2023-12-04T11:26:07;100587.78;;;4.35;100.00
58534;BME280;44109;52.398;7.024;2023-12-04T11:28:36;100584.09;;;4.31;100.00
58534;BME280;44109;52.398;7.024;2023-12-04T11:31:06;100585.44;;;4.25;100.00
58534;BME280;44109;52.398;7.024;2023-12-04T11:33:35;100579.88;;;4.04;100.00
58534;BME280;44109;52.398;7.024;2023-12-04T11:36:08;100587.38;;;4.24;100.00
58534;BME280;44109;52.398;7.024;2023-12-04T11:38:38;100582.16;;;4.31;100.00
58534;BME280;44109;52.398;7.024;2023-12-04T11:41:19;100583.78;;;4.32;100.00
58534;BME280;44109;52.398;7.024;2023-12-04T11:43:47;100575.03;;;4.30;100.00
58534;BME280;44109;52.398;7.024;2023-12-04T11:46:19;100577.72;;;4.18;100.00
58534;BME280;44109;52.398;7.024;2023-12-04T11:48:49;100561.56;;;4.17;100.00
58534;BME280;44109;52.398;7.024;2023-12-04T11:51:47;100554.28;;;4.21;100.00
58534;BME280;44109;52.398;7.024;2023-12-04T11:54:19;100562.25;;;4.35;100.00
58534;BME280;44109;52.398;7.024;2023-12-04T11:56:59;100571.00;;;4.37;100.00
58534;BME280;44109;52.398;7.024;2023-12-04T11:59:47;100557.91;;;4.33;100.00
58534;BME280;44109;52.398;7.024;2023-12-04T12:02:15;100560.41;;;3.97;100.00
58534;BME280;44109;52.398;7.024;2023-12-04T12:04:43;100575.44;;;4.20;100.00
58534;BME280;44109;52.398;7.024;2023-12-04T12:07:11;100561.81;;;4.32;100.00
58534;BME280;44109;52.398;7.024;2023-12-04T12:09:39;100562.81;;;4.28;100.00
58534;BME280;44109;52.398;7.024;2023-12-04T12:12:08;100565.25;;;4.21;100.00
58534;BME280;44109;52.398;7.024;2023-12-04T12:14:36;100572.78;;;4.32;100.00
58534;BME280;44109;52.398;7.024;2023-12-04T12:17:04;100565.34;;;4.33;100.00
58534;BME280;44109;52.398;7.024;2023-12-04T12:19:31;100554.81;;;4.35;100.00
58534;BME280;44109;52.398;7.024;2023-12-04T12:21:59;100561.06;;;4.23;100.00
58534;BME280;44109;52.398;7.024;2023-12-04T12:24:26;100559.56;;;4.26;100.00
58534;BME280;44109;52.398;7.024;2023-12-04T12:26:55;100549.13;;;4.19;100.00
58534;BME280;44109;52.398;7.024;2023-12-04T12:29:24;100550.38;;;4.22;100.00
58534;BME280;44109;52.398;7.024;2023-12-04T12:31:52;100535.94;;;4.33;100.00
58534;BME280;44109;52.398;7.024;2023-12-04T12:34:19;100539.22;;;4.27;100.00
58534;BME280;44109;52.398;7.024;2023-12-04T12:36:46;100533.72;;;4.27;100.00
58534;BME280;44109;52.398;7.024;2023-12-04T12:39:14;100528.16;;;4.15;100.00
58534;BME280;44109;52.398;7.024;2023-12-04T12:41:47;100497.78;;;4.20;100.00
58534;BME280;44109;52.398;7.024;2023-12-04T12:44:15;100517.31;;;4.39;100.00
58534;BME280;44109;52.398;7.024;2023-12-04T12:46:48;100512.63;;;4.40;100.00
58534;BME280;44109;52.398;7.024;2023-12-04T12:49:17;100505.59;;;4.51;100.00
58534;BME280;44109;52.398;7.024;2023-12-04T12:51:45;100500.97;;;4.43;100.00
58534;BME280;44109;52.398;7.024;2023-12-04T12:54:13;100502.31;;;4.57;100.00
58534;BME280;44109;52.398;7.024;2023-12-04T12:56:41;100495.06;;;4.53;100.00
58534;BME280;44109;52.398;7.024;2023-12-04T12:59:08;100491.81;;;4.60;100.00